Time;durP1;ratioP1;P1;durP2;ratioP2;P2;SDS_P1;SDS_P2;PMS_P1;PMS_P2;Temp;Humidity;BMP_temperature;BMP_pressure;BME280_temperature;BME280_humidity;BME280_pressure;Samples;Min_cycle;Max_cycle;Signal;HPM_P1;HPM_P2
2023/05/03 00:01:19;;;;;;;7.23;4.47;;;10.80;66.40;;;;;;5054882;28;20522;-57
2023/05/03 00:03:47;;;;;;;5.80;4.57;;;10.80;66.30;;;;;;5054804;28;20472;-57
2023/05/03 00:06:15;;;;;;;7.30;4.30;;;10.70;66.70;;;;;;5054765;28;20448;-57
2023/05/03 00:08:42;;;;;;;5.50;4.33;;;10.70;67.30;;;;;;5053931;28;20880;-57
2023/05/03 00:11:09;;;;;;;7.43;4.80;;;10.60;67.30;;;;;;5054722;28;20453;-57
2023/05/03 00:13:36;;;;;;;4.50;4.20;;;10.60;67.90;;;;;;5054541;28;20493;-58
2023/05/03 00:16:03;;;;;;;9.93;4.30;;;10.50;68.70;;;;;;5054711;28;20446;-57
2023/05/03 00:18:30;;;;;;;4.70;4.20;;;10.40;68.00;;;;;;5054631;28;20832;-57
2023/05/03 00:20:59;;;;;;;4.97;3.97;;;10.40;68.10;;;;;;5054751;28;20466;-57
2023/05/03 00:23:27;;;;;;;5.40;4.50;;;10.30;68.30;;;;;;5054584;28;20465;-57
2023/05/03 00:25:54;;;;;;;4.70;4.03;;;10.30;68.50;;;;;;5054527;28;20449;-57
2023/05/03 00:28:21;;;;;;;4.07;3.67;;;10.30;68.90;;;;;;5054620;28;20453;-58
2023/05/03 00:30:47;;;;;;;8.20;4.43;;;10.30;69.60;;;;;;5054182;28;20449;-57
2023/05/03 00:33:15;;;;;;;7.10;4.60;;;10.20;69.70;;;;;;5054025;28;20508;-58
2023/05/03 00:35:42;;;;;;;7.70;4.70;;;10.10;71.20;;;;;;5053820;28;20999;-57
2023/05/03 00:38:10;;;;;;;7.43;5.43;;;10.00;70.00;;;;;;5054043;28;20460;-57
2023/05/03 00:40:36;;;;;;;5.57;5.00;;;9.90;71.20;;;;;;5054131;28;20453;-56
2023/05/03 00:43:03;;;;;;;5.13;4.57;;;9.90;71.60;;;;;;5053678;28;20969;-57
2023/05/03 00:45:31;;;;;;;6.23;5.70;;;9.90;71.90;;;;;;5054402;28;20478;-57
2023/05/03 00:47:58;;;;;;;5.40;4.53;;;9.80;71.70;;;;;;5053608;28;20879;-57
2023/05/03 00:50:25;;;;;;;6.00;4.60;;;9.80;71.80;;;;;;5053864;28;20530;-57
2023/05/03 00:52:51;;;;;;;6.13;5.17;;;9.80;71.90;;;;;;5053888;28;20848;-57
2023/05/03 00:55:20;;;;;;;6.87;5.63;;;9.80;72.40;;;;;;5053605;28;21005;-58
2023/05/03 00:57:46;;;;;;;6.50;4.93;;;9.80;73.00;;;;;;5053726;28;20453;-57
2023/05/03 01:00:15;;;;;;;6.47;5.30;;;9.70;73.50;;;;;;5053713;28;20450;-57
2023/05/03 01:02:41;;;;;;;5.87;4.97;;;9.70;73.80;;;;;;5053729;28;20442;-57
2023/05/03 01:05:09;;;;;;;6.00;5.40;;;9.60;73.70;;;;;;5053802;28;20469;-57
2023/05/03 01:07:45;;;;;;;6.10;5.50;;;9.50;74.10;;;;;;5053847;28;20446;-58
2023/05/03 01:10:21;;;;;;;5.50;5.00;;;9.50;74.70;;;;;;5055466;28;20429;-57
2023/05/03 01:12:56;;;;;;;8.03;5.87;;;9.40;74.70;;;;;;5056148;28;20476;-58
2023/05/03 01:15:34;;;;;;;8.87;5.30;;;9.30;74.90;;;;;;5054246;28;20553;-58
2023/05/03 01:18:06;;;;;;;5.73;4.87;;;9.30;75.20;;;;;;5054206;28;20448;-58
2023/05/03 01:20:37;;;;;;;7.60;5.77;;;9.30;75.00;;;;;;5052976;28;20434;-58
2023/05/03 01:23:11;;;;;;;5.47;4.97;;;9.30;75.50;;;;;;5053744;28;20421;-57
2023/05/03 01:25:39;;;;;;;6.70;5.10;;;9.30;75.40;;;;;;5053625;28;20434;-57
2023/05/03 01:28:05;;;;;;;7.40;5.23;;;9.30;75.50;;;;;;5053392;28;20868;-58
2023/05/03 01:30:34;;;;;;;6.27;4.70;;;9.30;75.60;;;;;;5053485;28;20523;-58
2023/05/03 01:33:05;;;;;;;6.13;4.40;;;9.30;75.70;;;;;;5053526;28;20481;-58
2023/05/03 01:35:37;;;;;;;8.03;5.10;;;9.20;76.00;;;;;;5053272;28;20469;-58
2023/05/03 01:38:04;;;;;;;5.00;4.60;;;9.20;76.40;;;;;;5053490;28;20440;-57
2023/05/03 01:40:34;;;;;;;5.40;4.07;;;9.20;76.50;;;;;;5053290;28;20441;-57
2023/05/03 01:43:04;;;;;;;9.33;5.00;;;9.10;76.60;;;;;;5053082;28;20453;-57
2023/05/03 01:45:30;;;;;;;5.37;4.43;;;9.00;76.60;;;;;;5053160;28;20470;-57
2023/05/03 01:47:57;;;;;;;4.80;4.40;;;9.00;76.60;;;;;;5053154;28;20809;-57
2023/05/03 01:50:24;;;;;;;6.00;5.40;;;9.00;76.90;;;;;;5053317;28;20456;-58
2023/05/03 01:52:52;;;;;;;5.10;4.60;;;8.90;76.70;;;;;;5053078;28;20455;-57
2023/05/03 01:55:18;;;;;;;7.50;4.83;;;8.90;76.90;;;;;;5052995;28;20484;-57
2023/05/03 01:57:45;;;;;;;4.40;4.00;;;8.90;76.70;;;;;;5053345;28;20446;-58
2023/05/03 02:00:15;;;;;;;8.00;5.93;;;8.90;76.20;;;;;;5053355;28;20456;-58
2023/05/03 02:02:41;;;;;;;6.93;4.80;;;8.90;76.50;;;;;;5052972;28;20476;-58
2023/05/03 02:05:09;;;;;;;7.07;4.63;;;8.90;76.70;;;;;;5052754;28;20990;-58
2023/05/03 02:07:36;;;;;;;4.83;4.40;;;9.00;76.90;;;;;;5052794;28;20453;-58
2023/05/03 02:10:04;;;;;;;6.60;5.00;;;8.90;76.90;;;;;;5052925;28;20473;-57
2023/05/03 02:12:30;;;;;;;6.20;5.20;;;8.90;77.60;;;;;;5053013;28;20492;-57
2023/05/03 02:14:57;;;;;;;4.67;4.27;;;8.90;77.50;;;;;;5052876;28;20563;-58
2023/05/03 02:17:26;;;;;;;8.50;4.83;;;8.90;77.70;;;;;;5052599;28;20446;-58
2023/05/03 02:19:53;;;;;;;4.17;3.77;;;8.80;77.90;;;;;;5052854;28;20506;-57
2023/05/03 02:22:19;;;;;;;5.73;4.60;;;8.80;77.90;;;;;;5052557;28;20957;-57
2023/05/03 02:24:46;;;;;;;5.93;5.23;;;8.70;78.00;;;;;;5052730;28;20511;-57
2023/05/03 02:27:13;;;;;;;5.70;4.70;;;8.60;78.10;;;;;;5052824;28;20452;-57
2023/05/03 02:29:40;;;;;;;6.50;4.73;;;8.60;78.30;;;;;;5052796;28;20838;-58
2023/05/03 02:32:07;;;;;;;6.47;5.10;;;8.60;78.60;;;;;;5054178;28;20480;-58
2023/05/03 02:34:35;;;;;;;7.13;5.03;;;8.50;78.60;;;;;;5056419;28;20493;-57
2023/05/03 02:37:02;;;;;;;6.90;4.60;;;8.50;78.80;;;;;;5056472;28;20452;-57
2023/05/03 02:39:29;;;;;;;5.73;5.07;;;8.50;78.80;;;;;;5056434;28;20480;-58
2023/05/03 02:41:56;;;;;;;6.67;5.27;;;8.50;78.90;;;;;;5056429;28;20455;-58
2023/05/03 02:44:23;;;;;;;7.03;5.37;;;8.50;78.70;;;;;;5056300;28;20474;-58
2023/05/03 02:46:49;;;;;;;8.10;5.13;;;8.50;79.00;;;;;;5056248;28;20453;-58
2023/05/03 02:49:16;;;;;;;6.13;5.23;;;8.50;79.30;;;;;;5056268;28;20453;-58
2023/05/03 02:51:44;;;;;;;9.50;5.80;;;8.50;79.30;;;;;;5056236;28;20472;-57
2023/05/03 02:54:11;;;;;;;4.77;4.37;;;8.50;79.10;;;;;;5055911;28;20568;-57
2023/05/03 02:56:38;;;;;;;5.83;4.97;;;8.50;79.10;;;;;;5056118;28;20449;-57
2023/05/03 02:59:05;;;;;;;5.70;5.10;;;8.50;79.30;;;;;;5056053;28;20483;-57
2023/05/03 03:01:33;;;;;;;5.13;4.63;;;8.40;79.20;;;;;;5056065;28;20449;-57
2023/05/03 03:04:00;;;;;;;5.30;4.70;;;8.40;79.30;;;;;;5055933;28;20457;-57
2023/05/03 03:06:27;;;;;;;4.83;4.37;;;8.40;79.10;;;;;;5055963;28;20808;-57
2023/05/03 03:08:55;;;;;;;6.77;5.57;;;8.30;79.00;;;;;;5055646;28;20496;-57
2023/05/03 03:11:22;;;;;;;5.77;4.60;;;8.30;79.60;;;;;;5055817;28;20453;-57
2023/05/03 03:13:49;;;;;;;7.50;4.20;;;8.30;79.70;;;;;;5055582;28;20926;-57
2023/05/03 03:16:16;;;;;;;7.00;4.50;;;8.30;79.70;;;;;;5055760;28;20441;-57
2023/05/03 03:18:43;;;;;;;6.77;5.03;;;8.20;79.30;;;;;;5055647;28;20452;-57
2023/05/03 03:21:09;;;;;;;4.60;4.10;;;8.20;79.40;;;;;;5055661;28;20453;-57
2023/05/03 03:23:36;;;;;;;5.80;4.40;;;8.10;79.10;;;;;;5055549;28;20461;-57
2023/05/03 03:26:05;;;;;;;5.10;4.67;;;8.10;79.20;;;;;;5055564;28;20472;-57
2023/05/03 03:28:31;;;;;;;9.10;4.53;;;8.10;79.60;;;;;;5055404;28;20468;-57
2023/05/03 03:30:58;;;;;;;4.80;4.30;;;8.10;79.80;;;;;;5055514;28;20477;-57
2023/05/03 03:33:25;;;;;;;8.20;4.70;;;8.10;79.80;;;;;;5055272;28;20496;-58
2023/05/03 03:35:52;;;;;;;6.27;5.67;;;8.10;80.10;;;;;;5055342;28;20462;-57
2023/05/03 03:38:18;;;;;;;7.57;4.20;;;8.10;80.10;;;;;;5055027;28;20453;-57
2023/05/03 03:40:45;;;;;;;7.23;5.20;;;8.00;79.70;;;;;;5055280;28;20483;-57
2023/05/03 03:43:13;;;;;;;5.47;4.97;;;8.00;80.30;;;;;;5054115;28;20458;-57
2023/05/03 03:45:40;;;;;;;9.47;4.53;;;8.00;80.60;;;;;;5055171;28;20456;-57
2023/05/03 03:48:07;;;;;;;7.70;5.27;;;8.00;80.40;;;;;;5055938;28;20460;-57
2023/05/03 03:50:34;;;;;;;7.00;4.23;;;8.00;80.50;;;;;;5054759;28;21013;-57
2023/05/03 03:53:00;;;;;;;4.60;4.20;;;7.90;80.40;;;;;;5055068;28;20453;-57
2023/05/03 03:55:27;;;;;;;6.37;4.70;;;7.90;80.20;;;;;;5054569;28;20492;-57
2023/05/03 03:57:54;;;;;;;5.10;4.60;;;7.90;80.30;;;;;;5054937;28;20473;-57
2023/05/03 04:00:22;;;;;;;5.17;4.67;;;7.90;80.90;;;;;;5054957;28;20457;-57
2023/05/03 04:02:49;;;;;;;4.83;4.30;;;7.90;80.70;;;;;;5054929;28;20449;-57
2023/05/03 04:05:16;;;;;;;6.83;4.83;;;7.80;80.60;;;;;;5054711;28;20461;-57
2023/05/03 04:07:42;;;;;;;6.13;5.53;;;7.90;80.80;;;;;;5054659;28;20545;-57
2023/05/03 04:10:10;;;;;;;6.23;5.17;;;7.90;81.20;;;;;;5054783;28;20800;-57
2023/05/03 04:12:36;;;;;;;6.00;5.50;;;7.90;81.30;;;;;;5055610;28;20540;-57
2023/05/03 04:15:04;;;;;;;8.90;5.17;;;7.90;81.80;;;;;;5054610;28;20851;-57
2023/05/03 04:17:33;;;;;;;4.80;4.40;;;7.90;82.10;;;;;;5056225;28;20453;-57
2023/05/03 04:20:02;;;;;;;3.67;3.13;;;7.80;81.50;;;;;;5055518;28;20536;-57
2023/05/03 04:22:29;;;;;;;4.60;4.00;;;7.70;81.90;;;;;;5055198;28;20461;-57
2023/05/03 04:24:56;;;;;;;4.90;4.17;;;7.60;82.10;;;;;;5055047;28;20465;-57
2023/05/03 04:27:25;;;;;;;4.43;4.03;;;7.60;82.80;;;;;;5054920;28;20449;-57
2023/05/03 04:29:52;;;;;;;6.50;4.27;;;7.60;83.50;;;;;;5054484;28;20450;-57
2023/05/03 04:32:22;;;;;;;5.47;4.80;;;7.50;84.00;;;;;;5054415;28;20446;-57
2023/05/03 04:34:51;;;;;;;5.10;4.60;;;7.50;84.00;;;;;;5054448;28;20486;-57
2023/05/03 04:37:18;;;;;;;6.73;4.80;;;7.50;84.50;;;;;;5054401;28;20449;-57
2023/05/03 04:39:44;;;;;;;5.40;4.40;;;7.50;84.40;;;;;;5054058;28;20456;-57
2023/05/03 04:42:12;;;;;;;4.83;4.40;;;7.50;84.50;;;;;;5054226;28;20481;-57
2023/05/03 04:44:38;;;;;;;5.47;4.97;;;7.50;84.60;;;;;;5054164;28;20553;-57
2023/05/03 04:47:05;;;;;;;5.13;4.70;;;7.50;84.70;;;;;;5053911;28;20970;-57
2023/05/03 04:49:33;;;;;;;5.17;4.77;;;7.50;84.80;;;;;;5053645;28;21009;-57
2023/05/03 04:52:01;;;;;;;10.10;5.93;;;7.60;85.90;;;;;;5053930;28;20456;-57
2023/05/03 04:54:28;;;;;;;7.23;5.77;;;7.60;85.40;;;;;;5053818;28;20526;-57
2023/05/03 04:56:55;;;;;;;6.07;5.47;;;7.70;85.80;;;;;;5053845;28;20449;-57
2023/05/03 04:59:22;;;;;;;5.83;5.23;;;7.70;86.10;;;;;;5053812;28;20507;-57
2023/05/03 05:01:49;;;;;;;6.97;5.93;;;7.70;86.40;;;;;;5053965;28;20548;-57
2023/05/03 05:04:15;;;;;;;8.67;5.93;;;7.80;86.80;;;;;;5053777;28;20519;-57
2023/05/03 05:06:42;;;;;;;10.23;6.20;;;7.90;87.20;;;;;;5053905;28;20454;-57
2023/05/03 05:09:21;;;;;;;7.97;6.23;;;7.90;87.40;;;;;;5053263;28;20973;-57
2023/05/03 05:11:48;;;;;;;7.40;6.57;;;8.00;87.80;;;;;;5053612;28;20429;-57
2023/05/03 05:14:14;;;;;;;5.93;5.43;;;8.00;87.80;;;;;;5053473;28;20485;-57
2023/05/03 05:16:41;;;;;;;8.97;6.80;;;8.10;88.30;;;;;;5054364;28;20460;-57
2023/05/03 05:19:08;;;;;;;7.03;6.33;;;8.10;88.70;;;;;;5053573;28;20449;-57
2023/05/03 05:21:35;;;;;;;7.30;6.60;;;8.20;88.60;;;;;;5053449;28;20499;-57
2023/05/03 05:24:02;;;;;;;7.43;6.60;;;8.20;88.60;;;;;;5053104;28;21021;-57
2023/05/03 05:26:30;;;;;;;8.43;7.40;;;8.20;88.60;;;;;;5053445;28;20449;-57
2023/05/03 05:28:56;;;;;;;11.20;7.83;;;8.30;89.00;;;;;;5053409;28;20448;-57
2023/05/03 05:31:23;;;;;;;6.80;6.10;;;8.30;89.50;;;;;;5053360;28;20453;-57
2023/05/03 05:33:50;;;;;;;10.00;8.13;;;8.40;89.80;;;;;;5053253;28;20501;-57
2023/05/03 05:36:17;;;;;;;8.43;7.30;;;8.50;90.00;;;;;;5053290;28;20473;-57
2023/05/03 05:38:44;;;;;;;12.33;7.13;;;8.50;90.20;;;;;;5053311;28;20816;-57
2023/05/03 05:41:10;;;;;;;10.23;7.70;;;8.60;90.40;;;;;;5053252;28;20456;-58
2023/05/03 05:43:38;;;;;;;8.43;7.10;;;8.70;90.70;;;;;;5053223;28;20473;-57
2023/05/03 05:46:05;;;;;;;12.60;7.47;;;8.70;90.80;;;;;;5052886;28;20839;-58
2023/05/03 05:48:32;;;;;;;11.73;8.23;;;8.70;90.80;;;;;;5053216;28;20475;-58
2023/05/03 05:50:58;;;;;;;9.20;8.27;;;8.80;90.90;;;;;;5053156;28;20460;-58
2023/05/03 05:53:25;;;;;;;9.50;7.00;;;8.90;91.10;;;;;;5053101;28;20446;-58
2023/05/03 05:55:52;;;;;;;8.70;7.13;;;9.00;91.10;;;;;;5052723;28;21064;-58
2023/05/03 05:58:18;;;;;;;8.50;7.10;;;9.00;91.00;;;;;;5053141;28;20452;-57
2023/05/03 06:00:47;;;;;;;12.93;6.60;;;9.10;91.20;;;;;;5053125;28;20453;-58
2023/05/03 06:03:14;;;;;;;16.03;8.20;;;9.20;91.10;;;;;;5053079;28;20453;-58
2023/05/03 06:05:41;;;;;;;11.87;7.83;;;9.30;91.20;;;;;;5053097;28;20478;-58
2023/05/03 06:08:08;;;;;;;8.17;7.47;;;9.40;90.90;;;;;;5055988;28;20839;-58
2023/05/03 06:10:34;;;;;;;11.03;6.80;;;9.50;90.50;;;;;;5056990;28;20484;-58
2023/05/03 06:13:02;;;;;;;13.40;7.17;;;9.60;90.30;;;;;;5056949;28;20449;-58
2023/05/03 06:15:29;;;;;;;12.60;7.90;;;9.60;90.20;;;;;;5056503;28;20579;-57
2023/05/03 06:17:57;;;;;;;10.70;8.63;;;9.70;90.20;;;;;;5056578;28;20488;-58
2023/05/03 06:20:24;;;;;;;10.60;8.03;;;9.90;90.00;;;;;;5056811;28;20464;-57
2023/05/03 06:22:51;;;;;;;7.90;6.60;;;10.00;88.50;;;;;;5056762;28;20453;-58
2023/05/03 06:25:18;;;;;;;7.83;6.77;;;10.00;88.40;;;;;;5056768;28;20471;-58
2023/05/03 06:27:44;;;;;;;10.57;7.80;;;10.20;88.10;;;;;;5056666;28;20441;-58
2023/05/03 06:30:12;;;;;;;7.63;6.83;;;10.30;88.30;;;;;;5056740;28;20943;-58
2023/05/03 06:32:39;;;;;;;9.93;7.47;;;10.40;88.00;;;;;;5056660;28;20453;-58
2023/05/03 06:35:09;;;;;;;7.60;6.20;;;10.50;87.80;;;;;;5056603;28;20513;-58
2023/05/03 06:37:35;;;;;;;7.83;6.80;;;10.70;88.00;;;;;;5056726;28;20477;-58
2023/05/03 06:40:02;;;;;;;8.80;7.47;;;10.70;85.80;;;;;;5056577;28;20959;-58
2023/05/03 06:42:29;;;;;;;9.57;7.13;;;10.80;84.20;;;;;;5056364;28;20832;-58
2023/05/03 06:44:56;;;;;;;8.60;6.40;;;10.90;82.80;;;;;;5056023;28;20970;-58
2023/05/03 06:47:23;;;;;;;8.67;7.50;;;11.00;82.70;;;;;;5056323;28;20441;-58
2023/05/03 06:49:49;;;;;;;8.50;6.17;;;11.10;82.30;;;;;;5056213;28;20453;-57
2023/05/03 06:52:17;;;;;;;10.93;7.73;;;11.30;82.40;;;;;;5056221;28;20476;-57
2023/05/03 06:54:44;;;;;;;8.00;7.07;;;11.40;81.40;;;;;;5056115;28;20477;-58
2023/05/03 06:57:11;;;;;;;9.40;6.00;;;11.60;81.40;;;;;;5056170;28;20500;-57
2023/05/03 06:59:37;;;;;;;9.17;7.17;;;11.80;80.30;;;;;;5056125;28;20499;-58
2023/05/03 07:02:04;;;;;;;8.70;6.00;;;11.90;79.30;;;;;;5056078;28;20442;-58
2023/05/03 07:04:31;;;;;;;9.47;7.30;;;12.00;78.70;;;;;;5055944;28;20465;-58
2023/05/03 07:06:58;;;;;;;7.07;6.37;;;12.20;78.00;;;;;;5056009;28;20477;-58
2023/05/03 07:09:26;;;;;;;10.40;5.70;;;12.40;78.00;;;;;;5055616;28;20473;-58
2023/05/03 07:11:53;;;;;;;11.73;6.50;;;12.50;76.60;;;;;;5055923;28;20456;-57
2023/05/03 07:14:19;;;;;;;7.10;5.63;;;12.70;75.70;;;;;;5055947;28;20544;-57
2023/05/03 07:16:46;;;;;;;9.03;6.73;;;12.80;74.90;;;;;;5058717;28;20489;-58
2023/05/03 07:19:13;;;;;;;6.70;5.90;;;13.00;73.70;;;;;;5056718;28;20468;-58
2023/05/03 07:21:39;;;;;;;9.87;5.93;;;13.20;72.70;;;;;;5056783;28;20456;-58
2023/05/03 07:24:07;;;;;;;9.50;6.07;;;13.40;71.30;;;;;;5056236;28;20481;-57
2023/05/03 07:26:35;;;;;;;7.60;5.70;;;13.60;70.20;;;;;;5055954;28;20536;-58
2023/05/03 07:29:01;;;;;;;10.90;5.50;;;13.70;69.60;;;;;;5055541;28;20975;-58
2023/05/03 07:31:28;;;;;;;8.63;6.57;;;13.90;69.10;;;;;;5055704;28;20568;-58
2023/05/03 07:33:55;;;;;;;8.23;6.00;;;14.10;68.50;;;;;;5055532;28;20465;-58
2023/05/03 07:36:22;;;;;;;22.03;7.20;;;14.30;67.20;;;;;;5055583;28;20481;-58
2023/05/03 07:38:49;;;;;;;6.63;5.80;;;14.50;66.30;;;;;;5055532;28;20473;-58
2023/05/03 07:41:15;;;;;;;6.43;4.47;;;14.60;65.50;;;;;;5055479;28;20445;-58
2023/05/03 07:43:43;;;;;;;7.90;6.17;;;14.80;65.30;;;;;;5055449;28;20469;-58
2023/05/03 07:46:10;;;;;;;6.30;4.83;;;15.00;64.10;;;;;;5055459;28;20850;-58
2023/05/03 07:48:37;;;;;;;5.50;5.00;;;15.10;61.90;;;;;;5055334;28;20450;-58
2023/05/03 07:51:04;;;;;;;9.40;5.37;;;15.30;60.80;;;;;;5055584;28;20453;-58
2023/05/03 07:53:31;;;;;;;5.50;5.00;;;15.50;59.80;;;;;;5055324;28;20536;-58
2023/05/03 07:55:57;;;;;;;5.37;4.80;;;15.60;59.30;;;;;;5055155;28;20485;-58
2023/05/03 07:58:24;;;;;;;5.80;4.97;;;15.80;58.70;;;;;;5055221;28;20450;-58
2023/05/03 08:00:52;;;;;;;5.67;5.10;;;16.00;58.40;;;;;;5055570;28;20499;-58
2023/05/03 08:03:19;;;;;;;5.80;5.17;;;16.20;57.30;;;;;;5055066;28;20456;-57
2023/05/03 08:05:46;;;;;;;6.17;4.87;;;16.30;55.70;;;;;;5055098;28;20451;-58
2023/05/03 08:08:13;;;;;;;6.20;5.10;;;16.50;55.80;;;;;;5054539;28;20951;-58
2023/05/03 08:10:40;;;;;;;6.53;5.67;;;16.60;54.60;;;;;;5054832;28;20470;-58
2023/05/03 08:13:07;;;;;;;5.73;5.23;;;16.80;54.30;;;;;;5054880;28;20445;-58
2023/05/03 08:15:34;;;;;;;5.63;5.13;;;17.00;54.60;;;;;;5054817;28;20563;-58
2023/05/03 08:18:02;;;;;;;6.10;5.13;;;17.20;54.30;;;;;;5054996;28;20446;-58
2023/05/03 08:20:30;;;;;;;6.40;5.80;;;17.40;53.60;;;;;;5055085;28;20449;-58
2023/05/03 08:22:56;;;;;;;7.53;5.60;;;17.60;53.00;;;;;;5054770;28;20453;-59
2023/05/03 08:25:24;;;;;;;8.77;5.17;;;17.70;51.60;;;;;;5054497;28;20469;-58
2023/05/03 08:27:51;;;;;;;5.83;5.10;;;17.90;50.90;;;;;;5054141;28;20507;-58
2023/05/03 08:30:18;;;;;;;6.43;4.53;;;18.00;50.20;;;;;;5054128;28;20464;-58
2023/05/03 08:32:46;;;;;;;5.27;4.43;;;18.20;48.60;;;;;;5054396;28;20452;-58
2023/05/03 08:35:14;;;;;;;6.07;4.57;;;18.30;48.70;;;;;;5054164;28;20489;-58
2023/05/03 08:37:42;;;;;;;7.23;4.90;;;18.50;48.70;;;;;;5054019;28;20947;-58
2023/05/03 08:40:12;;;;;;;7.83;4.57;;;18.70;48.90;;;;;;5054233;28;20457;-58
2023/05/03 08:42:40;;;;;;;7.00;5.30;;;18.90;48.10;;;;;;5054208;28;20503;-58
2023/05/03 08:45:10;;;;;;;5.13;4.73;;;19.10;45.80;;;;;;5053982;28;20519;-58
2023/05/03 08:47:39;;;;;;;8.10;5.10;;;19.10;46.20;;;;;;5053760;28;20465;-58
2023/05/03 08:50:07;;;;;;;7.03;4.40;;;19.30;46.90;;;;;;5053939;28;20453;-58
2023/05/03 08:52:35;;;;;;;4.53;3.90;;;19.50;47.10;;;;;;5053962;28;20461;-58
2023/05/03 08:55:02;;;;;;;5.53;3.93;;;19.70;46.30;;;;;;5053787;28;20488;-58
2023/05/03 08:57:30;;;;;;;5.63;5.07;;;19.90;45.50;;;;;;5053826;28;20445;-58
2023/05/03 08:59:59;;;;;;;8.07;5.00;;;20.10;45.00;;;;;;5053925;28;20456;-58
2023/05/03 09:02:26;;;;;;;7.60;5.10;;;20.20;44.60;;;;;;5053889;28;20821;-58
2023/05/03 09:04:53;;;;;;;4.43;3.77;;;20.40;43.20;;;;;;5053720;28;20890;-58
2023/05/03 09:07:20;;;;;;;5.07;3.50;;;20.50;43.60;;;;;;5053618;28;20446;-58
2023/05/03 09:09:48;;;;;;;6.07;3.70;;;20.70;43.40;;;;;;5053666;28;20445;-58
2023/05/03 09:12:34;;;;;;;4.10;3.63;;;20.90;43.10;;;;;;5053297;28;20803;-58
2023/05/03 09:15:01;;;;;;;8.03;4.20;;;21.00;39.20;;;;;;5053558;28;20544;-58
2023/05/03 09:17:28;;;;;;;4.90;4.37;;;21.10;40.50;;;;;;5053562;28;20559;-58
2023/05/03 09:19:56;;;;;;;6.07;4.50;;;21.10;40.80;;;;;;5053562;28;20456;-58
2023/05/03 09:22:26;;;;;;;5.93;5.23;;;21.20;40.90;;;;;;5053479;28;20449;-58
2023/05/03 09:24:56;;;;;;;5.73;4.33;;;21.40;40.20;;;;;;5053425;28;20469;-58
2023/05/03 09:27:23;;;;;;;5.57;3.90;;;21.70;40.10;;;;;;5053168;28;20944;-58
2023/05/03 09:29:51;;;;;;;7.03;4.40;;;21.90;40.00;;;;;;5053369;28;20453;-58
2023/05/03 09:32:18;;;;;;;5.13;3.90;;;22.10;39.70;;;;;;5053343;28;20445;-58
2023/05/03 09:34:45;;;;;;;5.30;4.03;;;22.40;39.80;;;;;;5053369;28;20465;-58
2023/05/03 09:37:13;;;;;;;4.87;3.97;;;22.50;38.70;;;;;;5053054;28;20836;-58
2023/05/03 09:39:41;;;;;;;4.13;3.73;;;22.60;37.90;;;;;;5053349;28;20449;-58
2023/05/03 09:42:13;;;;;;;6.27;3.43;;;22.80;37.90;;;;;;5052561;28;20460;-58
2023/05/03 09:44:41;;;;;;;9.57;4.00;;;23.00;38.10;;;;;;5053182;28;20469;-58
2023/05/03 09:47:08;;;;;;;5.87;3.97;;;23.30;36.70;;;;;;5053324;28;20446;-58
2023/05/03 09:49:35;;;;;;;4.07;3.23;;;23.50;36.60;;;;;;5053107;28;20473;-58
2023/05/03 09:52:03;;;;;;;5.73;3.90;;;23.70;36.40;;;;;;5053166;28;20449;-58
2023/05/03 09:54:31;;;;;;;4.00;3.60;;;23.90;35.80;;;;;;5053069;28;20469;-58
2023/05/03 09:56:57;;;;;;;4.40;4.00;;;24.20;35.20;;;;;;5052999;28;20477;-58
2023/05/03 09:59:25;;;;;;;6.60;4.00;;;24.50;35.00;;;;;;5053139;28;20445;-58
2023/05/03 10:01:57;;;;;;;5.30;3.30;;;24.80;33.90;;;;;;5052906;28;20449;-56
2023/05/03 10:04:26;;;;;;;3.90;3.50;;;25.00;33.60;;;;;;5053387;28;20469;-59
2023/05/03 10:06:58;;;;;;;5.20;3.70;;;25.40;32.90;;;;;;5053816;28;20477;-58
2023/05/03 10:09:30;;;;;;;5.37;3.37;;;25.60;32.00;;;;;;5055787;28;20481;-58
2023/05/03 10:12:01;;;;;;;4.30;3.70;;;25.90;31.70;;;;;;5054415;28;20430;-58
2023/05/03 10:14:29;;;;;;;3.90;3.13;;;26.10;31.40;;;;;;5053589;28;21021;-56
2023/05/03 10:17:00;;;;;;;5.23;3.30;;;26.20;31.00;;;;;;5052885;28;20877;-56
2023/05/03 10:19:33;;;;;;;3.90;3.13;;;26.60;30.90;;;;;;5053031;28;20857;-56
2023/05/03 10:22:04;;;;;;;3.47;3.17;;;26.90;29.90;;;;;;5053154;28;20438;-56
2023/05/03 10:24:31;;;;;;;5.73;3.27;;;27.40;29.80;;;;;;5052880;28;20504;-56
2023/05/03 10:26:59;;;;;;;3.97;3.50;;;27.90;29.20;;;;;;5052890;28;20866;-56
2023/05/03 10:29:47;;;;;;;7.63;3.93;;;28.40;28.10;;;;;;5052813;28;20446;-57
2023/05/03 10:32:31;;;;;;;6.77;4.00;;;29.00;27.30;;;;;;5052826;28;20863;-57
2023/05/03 10:35:01;;;;;;;6.03;4.63;;;29.50;27.10;;;;;;5052738;28;20457;-56
2023/05/03 10:37:28;;;;;;;5.87;4.30;;;29.90;25.70;;;;;;5053091;28;20480;-56
2023/05/03 10:39:55;;;;;;;5.07;3.60;;;30.30;25.60;;;;;;5052475;28;20527;-56
2023/05/03 10:42:24;;;;;;;4.70;4.20;;;30.80;25.20;;;;;;5052793;28;20822;-56
2023/05/03 10:44:53;;;;;;;4.03;3.50;;;31.40;25.10;;;;;;5052690;28;20468;-57
2023/05/03 10:47:22;;;;;;;5.10;3.60;;;31.90;24.70;;;;;;5052531;28;20931;-57
2023/05/03 10:50:24;;;;;;;4.13;3.77;;;32.50;23.90;;;;;;5052795;28;20499;-57
2023/05/03 10:52:51;;;;;;;7.00;4.50;;;33.20;23.00;;;;;;5053667;28;20502;-57
2023/05/03 10:55:19;;;;;;;4.40;3.77;;;33.70;22.10;;;;;;5056216;28;20480;-57
2023/05/03 10:57:47;;;;;;;5.80;5.20;;;34.20;21.60;;;;;;5055781;28;21006;-57
2023/05/03 11:00:20;;;;;;;5.60;3.80;;;34.60;20.80;;;;;;5055742;28;20957;-57
2023/05/03 11:03:18;;;;;;;4.00;3.67;;;35.00;20.10;;;;;;5055901;28;20907;-57
2023/05/03 11:05:47;;;;;;;5.40;4.80;;;35.50;19.40;;;;;;5055724;28;20697;-57
2023/05/03 11:08:16;;;;;;;5.13;4.63;;;35.80;19.10;;;;;;5055826;28;20217;-57
2023/05/03 11:10:44;;;;;;;5.63;4.27;;;36.20;18.70;;;;;;5056193;28;20232;-57
2023/05/03 11:13:11;;;;;;;5.25;4.30;;;36.40;18.70;;;;;;5055931;28;20626;-57
2023/05/03 11:15:40;;;;;;;5.95;4.35;;;36.60;18.60;;;;;;5055788;28;20256;-57
2023/05/03 11:18:07;;;;;;;7.85;4.68;;;36.90;18.50;;;;;;5055673;28;20230;-57
2023/05/03 11:20:35;;;;;;;4.38;3.90;;;37.10;18.10;;;;;;5055738;28;20214;-57
2023/05/03 11:23:02;;;;;;;4.63;4.22;;;37.20;18.10;;;;;;5055683;28;20613;-57
2023/05/03 11:25:29;;;;;;;5.47;4.53;;;37.30;17.70;;;;;;5055229;28;20227;-57
2023/05/03 11:27:56;;;;;;;4.70;4.05;;;37.40;17.80;;;;;;5055541;28;20199;-57
2023/05/03 11:30:23;;;;;;;4.90;4.40;;;37.50;18.10;;;;;;5055247;28;20695;-57
2023/05/03 11:32:51;;;;;;;5.30;4.80;;;37.70;17.60;;;;;;5055257;28;20202;-57
2023/05/03 11:35:20;;;;;;;5.07;4.65;;;38.00;17.30;;;;;;5055379;28;20227;-57
2023/05/03 11:37:46;;;;;;;6.05;5.55;;;38.30;17.40;;;;;;5056198;28;20226;-57
2023/05/03 11:40:17;;;;;;;4.50;4.07;;;38.40;16.30;;;;;;5055261;28;20206;-57
2023/05/03 11:42:55;;;;;;;7.55;4.53;;;38.50;16.20;;;;;;5055259;28;20338;-57
2023/05/03 11:45:24;;;;;;;6.07;4.60;;;38.70;16.70;;;;;;5055250;28;20249;-57
2023/05/03 11:47:53;;;;;;;3.58;3.28;;;38.90;16.40;;;;;;5054892;28;20676;-57
2023/05/03 11:50:27;;;;;;;8.88;4.22;;;39.10;16.50;;;;;;5055053;28;20217;-57
2023/05/03 11:52:54;;;;;;;4.22;3.85;;;39.30;16.50;;;;;;5055164;28;20221;-57
2023/05/03 11:55:22;;;;;;;8.48;4.50;;;39.50;15.60;;;;;;5055027;28;20320;-57
2023/05/03 11:57:49;;;;;;;8.35;4.00;;;39.60;16.00;;;;;;5054974;28;20222;-57
2023/05/03 12:00:16;;;;;;;5.78;3.80;;;39.70;15.80;;;;;;5055501;28;20210;-57
2023/05/03 12:02:44;;;;;;;5.55;4.40;;;39.70;16.20;;;;;;5055039;28;20261;-57
2023/05/03 12:05:12;;;;;;;4.22;3.60;;;39.90;16.30;;;;;;5054282;28;20238;-57
2023/05/03 12:07:39;;;;;;;8.30;4.28;;;40.10;15.70;;;;;;5054582;28;20202;-57
2023/05/03 12:10:14;;;;;;;4.25;3.85;;;40.10;15.40;;;;;;5054567;28;20667;-57
2023/05/03 12:12:50;;;;;;;6.97;3.83;;;40.10;15.60;;;;;;5054708;28;20194;-57
2023/05/03 12:15:27;;;;;;;8.32;4.45;;;40.30;15.40;;;;;;5054619;28;20248;-57
2023/05/03 12:17:56;;;;;;;5.40;4.90;;;40.50;14.80;;;;;;5054575;28;20302;-57
2023/05/03 12:20:27;;;;;;;6.53;4.15;;;40.50;14.10;;;;;;5054631;28;20202;-57
2023/05/03 12:22:56;;;;;;;4.65;4.25;;;40.50;14.30;;;;;;5054578;28;20187;-57
2023/05/03 12:25:24;;;;;;;4.85;4.20;;;40.60;15.30;;;;;;5055312;28;20569;-57
2023/05/03 12:27:52;;;;;;;6.50;4.97;;;40.80;14.50;;;;;;5054428;28;20233;-57
2023/05/03 12:30:20;;;;;;;5.07;4.32;;;41.00;14.60;;;;;;5054387;28;20206;-57
2023/05/03 12:32:47;;;;;;;3.50;3.20;;;40.90;14.10;;;;;;5054378;28;20210;-57
2023/05/03 12:35:13;;;;;;;4.85;4.45;;;40.90;14.50;;;;;;5054086;28;20230;-57
2023/05/03 12:37:41;;;;;;;5.43;3.88;;;40.90;14.30;;;;;;5054298;28;20230;-57
2023/05/03 12:40:09;;;;;;;4.30;3.65;;;41.00;14.90;;;;;;5054322;28;20210;-57
2023/05/03 12:42:36;;;;;;;5.20;3.75;;;41.10;14.50;;;;;;5054005;28;20676;-57
2023/05/03 12:45:03;;;;;;;4.10;3.67;;;41.40;14.70;;;;;;5054004;28;20770;-57
2023/05/03 12:47:30;;;;;;;3.45;3.15;;;41.60;14.40;;;;;;5054130;28;20209;-57
2023/05/03 12:49:56;;;;;;;4.93;3.75;;;41.80;14.10;;;;;;5054040;28;20206;-57
2023/05/03 12:52:23;;;;;;;5.30;3.83;;;42.00;14.50;;;;;;5054144;28;20236;-57
2023/05/03 12:54:52;;;;;;;4.43;3.88;;;42.10;14.10;;;;;;5054481;28;20222;-57